KEUL

Caldwell Industrial

Airport
ICAO code
KEUL
Summary
ICAO Region
NAM
ICAO Territory
Location

Caldwell, Canyon County, Idaho,

Elevation
2432 ft
Coordinates
43° 38' 28" N , 116° 38' 6" W
KCC
BSk
Airport CFIT
Altimeter Temperature Error Correction
Metar
Observation
KEUL 100056Z AUTO 28008KT 10SM CLR 29/16 A2996 RMK AO2 RAB29E43 SLP122 P0000 T02890156
Station
Caldwell, Caldwell Industrial Airport
Date/Time
2022-08-10 00:56:00
Wind direction
280°
Wind speed
08 kts
Lowest cloud amount
n/a
Temperature
28.9°C
Dew point
15.6°C
Humidity
44%
Weather condition
n/a

Description

Caldwell Industrial Airport is a city-owned public-use airport located 5 km southeast of the central business district of Caldwell, a city in Canyon County, Idaho, United States.

Climatology

Cold Semi-arid climate (Köppen climate classification BSk). - Hot, sometimes extremely hot summers and cold, sometimes very cold winters. Some snowfall during the winter. Areas featuring cold semi-arid climates are sometimes subject to major temperature swings during a 24 hour period.

Airport map

Aerial View

SKYbrary Partners:

Safety knowledge contributed by: